Walnut Creek, Ohio
Current Conditions -  °F | °C
As of 9:53 AM on Wednesday 26 Nov 2014 (Local Time) from KPHD Reporting Station
Clear Clear  
Wind Chill: 33°   Ceiling: Unl
Heat Index: 33°   Visibility: 10mi
Dew Point: 26°   Wind: 3mph
Humidity: 75%   Direction: 60°ENE
Pressure: 30.09"   Gusts: NA
Location:  40.54°N, 81.72°W
Report Text: KPHD 261453Z AUTO 06003KT 10SM CLR 01/M03 A3009 RMK AO2 SLP201 T00061033 58001
Loading
Personal Weather Stations






























Interactive Weather Map New forecast layout! Learn more

10-Day Weather Forecast

Advertisements
Track Severe Weather on mobile